Time;durP1;ratioP1;P1;durP2;ratioP2;P2;SDS_P1;SDS_P2;PMS_P1;PMS_P2;Temp;Humidity;BMP_temperature;BMP_pressure;BME280_temperature;BME280_humidity;BME280_pressure;Samples;Min_cycle;Max_cycle;Signal;HPM_P1;HPM_P2
2021/09/06 00:01:17;;;;;;;9.40;5.20;;;;;;;11.04;60.26;99903.50;112847;1188;61264;-91
2021/09/06 00:08:37;;;;;;;;;;;;;;;;;;;;;
2021/09/06 00:16:04;;;;;;;8.70;4.90;;;;;;;10.82;60.56;99904.46;111620;1199;74873;-90
2021/09/06 00:19:12;;;;;;;;;;;;;;;;;;;;;
2021/09/06 00:26:35;;;;;;;;;;;;;;;;;;;;;
2021/09/06 00:29:56;;;;;;;;;;;;;;;;;;;;;
2021/09/06 00:33:40;;;;;;;;;;;;;;;;;;;;;
2021/09/06 00:37:43;;;;;;;7.40;4.40;;;;;;;11.02;60.76;99887.25;113051;1189;75804;-90
2021/09/06 00:41:19;;;;;;;10.10;4.60;;;;;;;10.98;60.92;99888.02;112551;1191;67839;-89
2021/09/06 00:45:05;;;;;;;6.00;4.10;;;;;;;10.92;60.92;99890.17;112427;1190;72603;-89
2021/09/06 00:48:52;;;;;;;8.70;4.50;;;;;;;10.88;61.11;99892.02;112084;1195;61018;-91
2021/09/06 00:52:15;;;;;;;6.80;4.00;;;;;;;10.85;61.10;99890.82;111508;1200;61140;-90
2021/09/06 01:00:37;;;;;;;7.80;4.60;;;;;;;10.85;61.33;99890.40;111842;1196;600670;-90
2021/09/06 01:04:25;;;;;;;8.00;4.20;;;;;;;10.85;61.30;99888.33;113109;1184;61188;-91
2021/09/06 01:07:48;;;;;;;10.80;5.10;;;;;;;10.84;61.26;99892.46;113206;1183;61070;-89
2021/09/06 01:11:38;;;;;;;5.60;4.00;;;;;;;10.80;61.37;99889.64;113004;1188;74623;-89
2021/09/06 01:23:27;;;;;;;5.60;3.70;;;;;;;10.60;61.64;99884.81;111223;1205;61172;-91
2021/09/06 01:35:11;;;;;;;12.20;4.80;;;;;;;10.59;61.73;99886.31;113088;1186;61098;-90
2021/09/06 01:38:58;;;;;;;7.20;4.00;;;;;;;10.58;61.67;99881.23;112810;1188;61187;-91
2021/09/06 01:42:46;;;;;;;8.30;4.50;;;;;;;10.52;61.88;99881.50;112011;1195;75306;-91
2021/09/06 01:46:33;;;;;;;8.60;4.40;;;;;;;10.46;61.83;99880.63;111324;1202;69793;-91
2021/09/06 01:54:15;;;;;;;5.40;3.20;;;;;;;10.35;62.12;99877.01;111537;1196;599911;-94
2021/09/06 01:57:37;;;;;;;;;;;;;;;;;;;;;
2021/09/06 02:01:49;;;;;;;6.40;3.50;;;;;;;10.35;62.32;99881.11;111824;1196;61123;-91
2021/09/06 02:05:27;;;;;;;7.50;4.30;;;;;;;10.40;62.31;99878.67;111267;1203;76218;-90
2021/09/06 02:09:14;;;;;;;6.50;4.00;;;;;;;10.45;62.39;99877.50;111100;1206;70304;-93
2021/09/06 02:16:47;;;;;;;8.60;4.10;;;;;;;10.46;62.33;99872.08;111308;1200;601281;-89
2021/09/06 02:21:18;;;;;;;7.00;3.50;;;;;;;10.39;62.30;99876.24;113167;1184;61173;-89
2021/09/06 02:24:41;;;;;;;6.90;3.70;;;;;;;10.31;62.38;99879.02;112891;1187;61145;-90
2021/09/06 02:28:55;;;;;;;6.50;3.70;;;;;;;10.23;62.58;99885.35;112364;1191;74722;-94
2021/09/06 02:32:10;;;;;;;7.10;3.30;;;;;;;10.18;62.50;99887.59;112019;1196;70116;-90
2021/09/06 02:51:27;;;;;;;;;;;;;;;10.18;62.78;99885.77;112795;1189;61105;-91
2021/09/06 02:54:23;;;;;;;;;;;;;;;;;;;;;
2021/09/06 02:58:36;;;;;;;5.40;3.80;;;;;;;10.10;62.81;99880.73;112362;1191;74655;-90
2021/09/06 03:09:28;;;;;;;;;;;;;;;;;;;;;
2021/09/06 03:25:34;;;;;;;12.30;3.80;;;;;;;9.81;63.21;99868.51;112405;1191;61516;-88
2021/09/06 03:29:21;;;;;;;8.80;3.70;;;;;;;9.86;63.37;99870.90;112050;1196;75174;-89
2021/09/06 03:36:28;;;;;;;;;;;;;;;;;;;;;
2021/09/06 03:44:51;;;;;;;4.10;2.80;;;;;;;9.70;63.41;99860.77;111837;1193;601124;-90
2021/09/06 03:48:38;;;;;;;5.90;3.50;;;;;;;9.64;63.50;99868.89;112041;1194;61248;-88
2021/09/06 03:52:01;;;;;;;;;;;;;;;;;;;;;
2021/09/06 04:03:13;;;;;;;;;;;;;;;;;;;;;
2021/09/06 04:15:19;;;;;;;17.50;4.50;;;;;;;9.76;63.78;99871.62;112365;1193;61139;-89
2021/09/06 04:18:43;;;;;;;;;;;;;;;;;;;;;
2021/09/06 04:22:57;;;;;;;8.40;3.10;;;;;;;9.68;63.78;99869.25;111436;1200;73778;-89
2021/09/06 04:26:19;;;;;;;21.50;4.30;;;;;;;9.66;63.91;99872.17;111127;1205;69870;-89
2021/09/06 04:30:36;;;;;;;10.60;3.70;;;;;;;9.70;64.02;99873.76;111177;1206;74891;-92
2021/09/06 04:38:27;;;;;;;16.20;4.40;;;;;;;9.86;64.03;99876.94;111376;1196;601820;-92
2021/09/06 04:42:14;;;;;;;18.10;4.30;;;;;;;9.89;64.05;99877.85;113035;1184;61081;-90
2021/09/06 04:53:35;;;;;;;11.70;4.00;;;;;;;9.93;63.93;99884.54;112138;1193;69059;-90
2021/09/06 04:57:21;;;;;;;7.40;3.50;;;;;;;9.95;64.05;99887.60;111526;1200;75096;-90
2021/09/06 05:04:45;;;;;;;;;;;;;;;;;;;;;
2021/09/06 05:16:24;;;;;;;6.70;3.50;;;;;;;10.64;64.27;99904.36;111623;1200;76811;-90
2021/09/06 05:32:14;;;;;;;9.80;3.40;;;;;;;11.40;64.40;99908.27;111433;1196;614578;-91
2021/09/06 05:35:51;;;;;;;6.50;4.30;;;;;;;11.66;64.41;99906.29;112391;1192;61040;-87
2021/09/06 05:39:39;;;;;;;7.70;3.90;;;;;;;11.89;64.26;99904.85;112467;1190;61247;-91
2021/09/06 05:43:25;;;;;;;8.20;3.40;;;;;;;12.15;64.36;99907.41;111601;1198;74665;-91
2021/09/06 05:47:12;;;;;;;11.10;4.30;;;;;;;12.34;64.29;99904.76;111140;1204;70296;-88
2021/09/06 05:58:25;;;;;;;;;;;;;;;;;;;;;
2021/09/06 06:02:39;;;;;;;8.40;3.70;;;;;;;12.43;64.12;99907.38;112678;1190;61107;-89
2021/09/06 06:06:28;;;;;;;5.80;3.10;;;;;;;12.39;64.30;99908.22;112401;1190;61078;-90
2021/09/06 06:10:14;;;;;;;5.70;3.00;;;;;;;12.45;64.33;99908.35;111991;1193;73891;-93
2021/09/06 06:14:01;;;;;;;5.00;3.00;;;;;;;12.60;64.35;99906.48;111655;1198;69028;-88
2021/09/06 06:21:10;;;;;;;14.40;4.20;;;;;;;13.01;64.50;99915.27;111075;1206;61101;-91
2021/09/06 06:24:48;;;;;;;;;;;;;;;13.23;64.56;99913.59;110905;1206;61284;-91
2021/09/06 06:33:00;;;;;;;11.60;3.80;;;;;;;13.57;64.41;99913.02;111502;1199;600228;-90
2021/09/06 06:36:48;;;;;;;8.50;3.10;;;;;;;13.72;64.44;99909.63;112441;1191;61889;-92
2021/09/06 06:40:34;;;;;;;9.50;3.60;;;;;;;13.93;64.36;99912.05;111815;1196;61134;-90
2021/09/06 06:44:10;;;;;;;7.60;3.40;;;;;;;14.19;64.51;99910.28;111164;1203;75737;-88
2021/09/06 06:54:51;;;;;;;;;;;;;;;;;;;;;
2021/09/06 06:58:29;;;;;;;10.90;4.60;;;;;;;15.33;63.97;99910.65;110654;1212;61252;-89
2021/09/06 07:09:42;;;;;;;;;;;;;;;;;;;;;
2021/09/06 07:21:30;;;;;;;3.30;2.30;;;;;;;16.13;62.98;99923.45;111652;1200;70331;-91
2021/09/06 07:25:17;;;;;;;4.70;2.40;;;;;;;16.35;62.75;99926.73;111175;1203;73814;-91
2021/09/06 07:28:49;;;;;;;4.80;2.10;;;;;;;16.52;62.52;99926.95;110971;1206;61339;-89
2021/09/06 07:36:36;;;;;;;3.10;2.00;;;;;;;16.91;62.57;99926.95;111675;1196;599785;-88
2021/09/06 07:40:22;;;;;;;3.30;2.00;;;;;;;17.15;62.45;99928.84;112955;1190;61154;-91
2021/09/06 07:47:29;;;;;;;;;;;;;;;;;;;;;
2021/09/06 07:55:29;;;;;;;4.30;1.80;;;;;;;17.58;61.52;99928.36;111048;1206;74010;-91
2021/09/06 08:03:22;;;;;;;5.10;1.90;;;;;;;17.88;61.19;99930.73;111530;1198;600734;-91
2021/09/06 08:06:40;;;;;;;3.80;2.00;;;;;;;18.05;61.02;99930.70;112822;1189;61520;-96
2021/09/06 08:10:40;;;;;;;4.10;1.90;;;;;;;18.17;60.68;99932.87;112822;1190;61056;-91
2021/09/06 08:14:27;;;;;;;6.20;2.20;;;;;;;18.33;60.93;99939.02;111924;1197;73176;-91
2021/09/06 08:17:42;;;;;;;4.00;2.10;;;;;;;18.54;60.51;99932.74;111540;1200;70731;-92
2021/09/06 08:21:40;;;;;;;;;;;;;;;;;;;;;
2021/09/06 08:24:38;;;;;;;;;;;;;;;;;;;;;
2021/09/06 08:28:02;;;;;;;3.70;2.30;;;;;;;18.82;60.01;99935.05;110882;1211;61539;-95
2021/09/06 08:31:33;;;;;;;;;;;;;;;;;;;;;
2021/09/06 08:35:13;;;;;;;;;;;;;;;;;;;;;
2021/09/06 08:43:31;;;;;;;3.60;2.30;;;;;;;19.48;59.98;99935.37;111727;1197;600443;-87
2021/09/06 08:49:43;;;;;;;;;;;;;;;;;;;;;
2021/09/06 08:53:20;;;;;;;;;;;;;;;;;;;;;
2021/09/06 09:00:46;;;;;;;3.00;2.00;;;;;;;20.34;58.93;99946.50;113164;1191;72288;-88
2021/09/06 09:04:27;;;;;;;3.70;1.80;;;;;;;20.51;58.77;99945.63;112568;1190;61225;-90
2021/09/06 09:07:57;;;;;;;;;;;;;;;;;;;;;
2021/09/06 09:11:42;;;;;;;;;;;;;;;;;;;;;
2021/09/06 09:16:01;;;;;;;7.10;2.70;;;;;;;20.78;58.58;99931.81;112159;1193;66559;-88
2021/09/06 09:19:26;;;;;;;3.30;2.40;;;;;;;20.96;57.91;99929.67;111545;1203;74135;-92
2021/09/06 09:23:01;;;;;;;3.40;2.10;;;;;;;21.02;57.78;99931.77;112617;1200;62157;-89
2021/09/06 09:26:56;;;;;;;3.60;1.80;;;;;;;21.19;57.91;99927.32;112603;1197;62122;-89
2021/09/06 09:31:27;;;;;;;3.10;2.10;;;;;;;21.38;57.77;99931.23;111818;1200;76810;-88
2021/09/06 09:35:13;;;;;;;3.00;1.90;;;;;;;21.54;57.16;99927.89;111581;1200;69306;-89
2021/09/06 09:43:08;;;;;;;4.80;2.00;;;;;;;21.82;57.45;99923.30;111962;1197;599024;-89
2021/09/06 09:50:43;;;;;;;4.30;1.90;;;;;;;22.14;56.69;99920.98;112232;1194;61325;-89
2021/09/06 09:54:05;;;;;;;;;;;;;;;;;;;;;
2021/09/06 09:58:02;;;;;;;;;;;;;;;22.36;56.32;99916.06;112587;1193;67871;-90
2021/09/06 10:20:39;;;;;;;7.80;2.10;;;;;;;23.05;55.28;99904.47;112133;1193;61120;-88
2021/09/06 10:24:51;;;;;;;5.00;1.80;;;;;;;23.06;55.20;99903.54;112536;1193;60979;-90
2021/09/06 10:28:32;;;;;;;3.70;2.20;;;;;;;23.17;55.00;99902.28;112167;1193;74829;-90
2021/09/06 10:32:27;;;;;;;5.00;2.40;;;;;;;23.32;54.97;99891.36;112186;1202;70293;-91
2021/09/06 10:43:23;;;;;;;4.70;2.30;;;;;;;23.67;54.50;99889.65;112793;1197;600714;-92
2021/09/06 10:47:38;;;;;;;5.80;2.60;;;;;;;23.77;54.60;99885.20;114240;1188;61314;-92
2021/09/06 10:58:54;;;;;;;;;;;;;;;;;;;;;
2021/09/06 11:13:53;;;;;;;7.10;2.50;;;;;;;24.11;53.45;99863.33;114457;1187;78090;-91
2021/09/06 11:18:20;;;;;;;5.00;1.90;;;;;;;24.07;53.09;99861.80;114146;1190;68359;-91
2021/09/06 11:22:06;;;;;;;2.10;1.90;;;;;;;24.10;53.22;99861.39;113148;1193;71000;-92
2021/09/06 11:25:21;;;;;;;;;;;;;;;;;;;;;
2021/09/06 11:36:54;;;;;;;;;;;;;;;;;;;;;
2021/09/06 11:40:34;;;;;;;;;;;;;;;;;;;;;
2021/09/06 11:48:24;;;;;;;;;;;;;;;;;;;;;
2021/09/06 11:55:32;;;;;;;;;;;;;;;;;;;;;
2021/09/06 11:59:27;;;;;;;;;;;;;;;;;;;;;
2021/09/06 12:03:02;;;;;;;;;;;;;;;;;;;;;
2021/09/06 12:11:26;;;;;;;3.70;2.50;;;;;;;24.43;51.70;99824.17;111986;1203;61085;-92
2021/09/06 12:15:04;;;;;;;6.50;2.30;;;;;;;24.40;51.72;99822.53;111554;1206;62633;-92
2021/09/06 12:30:29;;;;;;;7.40;2.60;;;;;;;24.15;51.27;99810.28;112748;1196;61499;-91
2021/09/06 12:41:29;;;;;;;5.10;2.60;;;;;;;23.99;50.90;99809.65;111438;1203;73462;-92
2021/09/06 12:45:17;;;;;;;3.20;2.50;;;;;;;23.92;50.79;99803.66;111403;1204;61069;-90
2021/09/06 12:48:45;;;;;;;;;;;;;;;;;;;;;
2021/09/06 13:07:41;;;;;;;11.90;2.90;;;;;;;23.77;50.58;99784.86;112708;1192;74443;-94
2021/09/06 13:11:28;;;;;;;3.40;2.40;;;;;;;23.68;50.44;99780.55;112447;1194;70745;-92
2021/09/06 13:15:13;;;;;;;7.30;2.70;;;;;;;23.60;50.30;99779.33;111938;1197;75218;-87
2021/09/06 13:18:20;;;;;;;;;;;;;;;;;;;;;
2021/09/06 13:26:15;;;;;;;;;;;;;;;;;;;;;
2021/09/06 13:29:48;;;;;;;;;;;;;;;;;;;;;
2021/09/06 13:33:34;;;;;;;;;;;;;;;;;;;;;
2021/09/06 13:49:11;;;;;;;;;;;;;;;;;;;;;
2021/09/06 13:53:05;;;;;;;;;;;;;;;;;;;;;
2021/09/06 13:57:06;;;;;;;4.80;3.10;;;;;;;22.89;49.93;99761.05;112462;1200;77057;-93
2021/09/06 14:00:49;;;;;;;18.90;9.20;;;;;;;22.96;49.98;99758.19;111352;1206;70045;-92
2021/09/06 14:04:13;;;;;;;;;;;;;;;;;;;;;
2021/09/06 14:15:50;;;;;;;6.10;2.60;;;;;;;23.24;49.69;99749.09;112736;1190;61063;-90
2021/09/06 14:22:50;;;;;;;5.00;3.20;;;;;;;23.21;49.56;99747.98;112208;1194;74667;-89
2021/09/06 14:25:58;;;;;;;9.50;3.50;;;;;;;23.17;49.52;99744.70;112303;1193;70201;-92
2021/09/06 14:29:28;;;;;;;;;;;;;;;;;;;;;
2021/09/06 14:33:28;;;;;;;4.70;3.50;;;;;;;23.08;49.46;99739.08;111765;1199;61121;-91
2021/09/06 14:37:14;;;;;;;5.10;3.30;;;;;;;23.03;49.43;99738.45;111751;1196;62887;-88
2021/09/06 14:40:45;;;;;;;8.70;3.60;;;;;;;22.94;49.35;99737.09;114382;1199;76542;-89
2021/09/06 14:51:25;;;;;;;;;;;;;;;;;;;;;
2021/09/06 14:59:12;;;;;;;5.70;3.60;;;;;;;22.50;49.33;99725.13;111377;1203;77876;-92
2021/09/06 15:02:58;;;;;;;4.30;3.30;;;;;;;22.43;49.29;99725.02;111314;1203;70314;-91
2021/09/06 15:14:43;;;;;;;5.50;3.20;;;;;;;22.31;49.25;99722.91;112387;1192;61315;-90
2021/09/06 15:22:08;;;;;;;51.40;36.30;;;;;;;22.19;49.33;99723.33;111781;1199;76854;-91
2021/09/06 15:25:29;;;;;;;;;;;;;;;;;;;;;
2021/09/06 15:29:17;;;;;;;20.80;14.40;;;;;;;21.95;49.27;99720.91;111345;1203;73691;-93
2021/09/06 15:33:29;;;;;;;12.50;6.60;;;;;;;21.82;49.37;99719.92;112364;1206;61126;-90
2021/09/06 15:37:15;;;;;;;15.00;7.50;;;;;;;21.72;49.29;99717.95;110753;1214;61750;-91
2021/09/06 15:39:24;;;;;;;10.40;6.10;;;;;;;21.65;49.39;99713.61;110567;1214;76922;-89
2021/09/06 15:46:26;;;;;;;7.40;5.50;;;;;;;21.60;49.45;99717.03;111515;1196;600695;-96
2021/09/06 15:50:22;;;;;;;8.00;5.10;;;;;;;21.61;49.42;99712.09;113127;1187;60373;-94
2021/09/06 15:54:09;;;;;;;13.30;5.10;;;;;;;21.67;49.52;99710.17;112442;1194;61157;-91
2021/09/06 15:57:55;;;;;;;6.50;4.30;;;;;;;21.76;49.33;99715.13;111746;1200;74414;-91
2021/09/06 16:01:31;;;;;;;10.30;5.10;;;;;;;22.14;49.51;99712.25;111759;1200;70373;-96
2021/09/06 16:05:08;;;;;;;8.40;5.50;;;;;;;22.76;49.56;99708.77;111490;1201;73928;-91
2021/09/06 16:08:28;;;;;;;;;;;;;;;;;;;;;
2021/09/06 16:16:40;;;;;;;6.90;3.90;;;;;;;22.56;49.01;99699.48;111906;1196;600233;-92
2021/09/06 16:20:28;;;;;;;6.70;3.90;;;;;;;22.09;49.06;99707.89;112842;1190;61094;-92
2021/09/06 16:24:11;;;;;;;7.30;4.10;;;;;;;21.65;49.08;99703.58;114810;1188;59973;-89
2021/09/06 16:27:57;;;;;;;11.00;6.40;;;;;;;21.33;49.20;99704.92;112623;1193;75982;-88
2021/09/06 16:31:44;;;;;;;14.00;7.30;;;;;;;21.06;49.29;99709.00;112005;1198;68959;-90
2021/09/06 16:39:16;;;;;;;;;;;;;;;;;;;;;
2021/09/06 16:42:56;;;;;;;;;;;;;;;;;;;;;
2021/09/06 16:46:05;;;;;;;;;;;;;;;;;;;;;
2021/09/06 16:49:31;;;;;;;;;;;;;;;;;;;;;
2021/09/06 16:53:19;;;;;;;;;;;;;;;;;;;;;
2021/09/06 16:56:50;;;;;;;;;;;;;;;;;;;;;
2021/09/06 17:00:47;;;;;;;15.80;6.00;;;;;;;19.48;49.79;99704.54;111706;1199;61086;-88
2021/09/06 17:03:57;;;;;;;;;;;;;;;;;;;;;
2021/09/06 17:07:39;;;;;;;;;;;;;;;;;;;;;
2021/09/06 17:18:28;;;;;;;7.50;4.50;;;;;;;18.62;50.20;99700.42;111794;1196;600030;-91
2021/09/06 17:21:56;;;;;;;;;;;;;;;;;;;;;
2021/09/06 17:25:55;;;;;;;;;;;;;;;;;;;;;
2021/09/06 17:29:37;;;;;;;;;;;;;;;18.04;50.33;99698.67;113530;1183;73367;-94
2021/09/06 17:33:20;;;;;;;6.50;4.10;;;;;;;17.85;50.11;99703.17;113187;1185;68020;-94
2021/09/06 17:36:30;;;;;;;;;;;;;;;;;;;;;
2021/09/06 17:40:22;;;;;;;7.90;3.90;;;;;;;17.45;50.25;99702.27;113090;1185;61214;-90
2021/09/06 17:44:08;;;;;;;6.30;4.10;;;;;;;17.29;50.29;99709.00;112946;1188;61115;-90
2021/09/06 17:47:38;;;;;;;5.20;3.80;;;;;;;17.13;50.36;99707.75;112112;1195;75631;-91
2021/09/06 17:51:25;;;;;;;8.40;4.00;;;;;;;16.95;50.38;99707.99;112071;1193;69168;-89
2021/09/06 17:54:18;;;;;;;14.00;6.10;;;;;;;16.82;50.55;99709.89;111572;1200;73855;-89
2021/09/06 17:57:16;;;;;;;17.50;9.00;;;;;;;16.74;50.61;99706.83;111567;1200;62534;-91
2021/09/06 18:00:39;;;;;;;;;;;;;;;;;;;;;
2021/09/06 18:03:55;;;;;;;15.70;7.90;;;;;;;16.52;50.73;99713.90;111479;1202;76565;-89
2021/09/06 18:07:24;;;;;;;;;;;;;;;;;;;;;
2021/09/06 18:14:05;;;;;;;15.60;5.60;;;;;;;16.15;51.05;99718.02;111572;1202;62077;-89
2021/09/06 18:17:32;;;;;;;13.70;5.60;;;;;;;16.02;51.18;99712.98;111220;1202;62364;-91
2021/09/06 18:25:47;;;;;;;7.00;4.60;;;;;;;15.83;51.47;99725.55;112041;1193;600933;-89
2021/09/06 18:29:36;;;;;;;7.60;4.70;;;;;;;15.79;51.61;99724.30;113108;1187;61101;-92
2021/09/06 18:33:21;;;;;;;7.60;4.80;;;;;;;15.77;51.61;99726.25;112570;1192;61235;-89
2021/09/06 18:37:09;;;;;;;8.50;4.70;;;;;;;15.65;51.70;99722.73;111774;1197;73322;-92
2021/09/06 18:40:23;;;;;;;;;;;;;;;;;;;;;
2021/09/06 18:44:09;;;;;;;;;;;;;;;;;;;;;
2021/09/06 18:47:55;;;;;;;;;;;;;;;;;;;;;
2021/09/06 18:55:51;;;;;;;8.20;5.70;;;;;;;15.40;52.25;99722.73;111700;1197;600073;-89
2021/09/06 18:59:30;;;;;;;12.90;4.70;;;;;;;15.33;52.37;99731.43;114684;1190;61043;-88
2021/09/06 19:03:19;;;;;;;8.30;4.20;;;;;;;15.34;52.71;99724.85;112249;1193;62942;-88
2021/09/06 19:06:12;;;;;;;;;;;;;;;;;;;;;
2021/09/06 19:09:19;;;;;;;10.20;5.90;;;;;;;15.49;52.69;99724.77;112122;1194;67847;-91
2021/09/06 19:13:08;;;;;;;12.00;6.00;;;;;;;15.47;52.79;99722.63;112107;1195;71437;-89
2021/09/06 19:17:12;;;;;;;16.50;6.70;;;;;;;15.50;53.01;99725.20;111465;1200;61517;-88
2021/09/06 19:20:06;;;;;;;15.10;7.20;;;;;;;15.51;52.97;99722.78;110931;1207;62725;-96
2021/09/06 19:23:04;;;;;;;13.40;7.10;;;;;;;15.44;52.95;99725.12;110993;1205;76159;-89
2021/09/06 19:26:26;;;;;;;;;;;;;;;;;;;;;
2021/09/06 19:33:58;;;;;;;;;;;;;;;;;;;;;
2021/09/06 19:38:10;;;;;;;21.60;7.50;;;;;;;15.26;53.48;99728.02;112876;1189;60995;-90
2021/09/06 19:41:27;;;;;;;25.90;8.40;;;;;;;15.13;53.58;99731.20;112885;1189;61657;-91
2021/09/06 19:44:49;;;;;;;;;;;;;;;;;;;;;
2021/09/06 19:48:29;;;;;;;16.90;7.10;;;;;;;14.93;53.90;99727.31;112726;1193;69708;-92
2021/09/06 19:52:12;;;;;;;;;;;;;;;;;;;;;
2021/09/06 19:56:14;;;;;;;;;;;;;;;;;;;;;
2021/09/06 19:59:33;;;;;;;15.40;8.00;;;;;;;14.89;54.14;99731.00;111993;1196;61251;-89
2021/09/06 20:02:31;;;;;;;18.60;8.40;;;;;;;14.80;54.38;99728.48;112078;1199;73604;-88
2021/09/06 20:09:22;;;;;;;14.90;7.80;;;;;;;14.76;54.59;99730.77;111909;1199;74289;-92
2021/09/06 20:12:04;;;;;;;;;;;;;;;;;;;;;
2021/09/06 20:15:08;;;;;;;16.40;7.10;;;;;;;14.70;54.81;99726.48;111874;1196;62048;-89
2021/09/06 20:18:17;;;;;;;;;;;;;;;;;;;;;
2021/09/06 20:21:43;;;;;;;14.30;8.00;;;;;;;14.46;54.92;99732.54;112012;1196;66590;-87
2021/09/06 20:28:01;;;;;;;14.40;8.10;;;;;;;14.39;55.24;99731.70;113009;1188;62020;-89
2021/09/06 20:30:36;;;;;;;13.60;7.40;;;;;;;14.42;55.51;99734.83;112707;1190;61928;-86
2021/09/06 20:34:21;;;;;;;18.40;8.00;;;;;;;14.47;55.49;99729.13;112872;1188;75631;-87
2021/09/06 20:37:13;;;;;;;12.50;7.20;;;;;;;14.51;55.71;99730.44;113031;1187;67864;-90
2021/09/06 20:40:39;;;;;;;;;;;;;;;;;;;;;
2021/09/06 20:43:25;;;;;;;15.40;7.80;;;;;;;14.56;55.88;99731.64;113593;1184;62022;-87
2021/09/06 20:46:49;;;;;;;13.20;7.50;;;;;;;14.57;55.98;99730.67;113365;1181;62042;-87
2021/09/06 20:50:10;;;;;;;15.00;8.70;;;;;;;14.57;56.06;99732.10;113052;1184;73722;-87
2021/09/06 20:53:50;;;;;;;20.30;8.30;;;;;;;14.55;56.23;99733.82;113204;1183;67624;-87
2021/09/06 20:56:48;;;;;;;;;;;;;;;14.55;56.26;99730.46;113075;1184;72458;-86
2021/09/06 20:59:53;;;;;;;;;;;;;;;;;;;;;
2021/09/06 21:03:04;;;;;;;;;;;;;;;;;;;;;
2021/09/06 21:06:15;;;;;;;;;;;;;;;;;;;;;
2021/09/06 21:09:07;;;;;;;;;;;;;;;;;;;;;
2021/09/06 21:12:16;;;;;;;;;;;;;;;;;;;;;
2021/09/06 21:15:15;;;;;;;18.20;9.20;;;;;;;14.57;56.97;99715.07;113003;1184;61897;-88
2021/09/06 21:18:48;;;;;;;18.20;9.20;;;;;;;14.63;57.00;99713.54;113274;1183;61878;-90
2021/09/06 21:22:00;;;;;;;18.90;11.50;;;;;;;14.69;57.15;99716.44;113030;1184;75268;-89
2021/09/06 21:25:10;;;;;;;;;;;;;;;;;;;;;
2021/09/06 21:27:59;;;;;;;19.40;10.70;;;;;;;14.77;57.22;99714.73;113617;1180;71508;-89
2021/09/06 21:30:55;;;;;;;17.70;10.30;;;;;;;14.75;57.28;99711.52;113635;1180;61859;-89
2021/09/06 21:34:35;;;;;;;18.10;9.70;;;;;;;14.72;57.39;99715.86;113613;1180;61895;-88
2021/09/06 21:37:11;;;;;;;21.60;11.30;;;;;;;14.69;57.41;99716.27;114056;1180;76215;-88
2021/09/06 21:40:05;;;;;;;15.50;9.50;;;;;;;14.71;57.91;99722.06;113408;1180;66553;-89
2021/09/06 21:43:25;;;;;;;16.00;10.10;;;;;;;14.90;58.15;99722.35;113331;1180;72765;-90
2021/09/06 21:46:14;;;;;;;16.20;11.40;;;;;;;15.06;58.01;99725.75;113108;1184;62049;-89
2021/09/06 21:49:57;;;;;;;16.10;12.00;;;;;;;15.17;57.99;99733.48;113462;1183;61979;-90
2021/09/06 21:53:45;;;;;;;18.70;11.70;;;;;;;15.31;58.20;99739.14;113258;1183;75447;-89
2021/09/06 21:56:43;;;;;;;24.90;11.30;;;;;;;15.46;58.23;99735.63;113117;1183;69440;-92
2021/09/06 22:00:08;;;;;;;17.20;11.10;;;;;;;15.53;58.07;99733.91;113234;1184;72808;-88
2021/09/06 22:03:38;;;;;;;19.00;11.10;;;;;;;15.54;58.00;99738.13;113348;1187;62039;-88
2021/09/06 22:06:54;;;;;;;15.20;10.50;;;;;;;15.54;58.15;99737.26;113017;1187;61922;-93
2021/09/06 22:10:38;;;;;;;;;;;;;;;;;;;;;
2021/09/06 22:13:41;;;;;;;17.20;10.40;;;;;;;15.54;58.27;99732.09;112851;1187;67888;-91
2021/09/06 22:16:49;;;;;;;16.00;10.30;;;;;;;15.47;58.37;99730.79;112920;1190;72584;-88
2021/09/06 22:20:04;;;;;;;;;;;;;;;;;;;;;
2021/09/06 22:24:03;;;;;;;;;;;;;;;;;;;;;
2021/09/06 22:27:09;;;;;;;;;;;;;;;;;;;;;
2021/09/06 22:30:08;;;;;;;;;;;;;;;;;;;;;
2021/09/06 22:33:12;;;;;;;12.70;9.10;;;;;;;15.22;58.96;99733.90;113170;1184;71576;-93
2021/09/06 22:36:36;;;;;;;14.40;9.10;;;;;;;15.45;59.20;99730.94;113251;1184;62505;-93
2021/09/06 22:40:36;;;;;;;14.30;10.40;;;;;;;15.69;59.25;99725.24;113088;1184;63187;-90
2021/09/06 22:43:39;;;;;;;13.10;9.40;;;;;;;15.85;58.91;99721.91;113194;1184;75656;-90
2021/09/06 22:47:11;;;;;;;12.80;9.60;;;;;;;15.95;58.89;99720.01;113153;1184;66575;-95
2021/09/06 22:50:45;;;;;;;;;;;;;;;;;;;;;
2021/09/06 22:53:46;;;;;;;;;;;;;;;;;;;;;
2021/09/06 22:57:29;;;;;;;14.40;9.40;;;;;;;16.04;58.87;99707.59;113193;1184;61856;-89
2021/09/06 23:00:16;;;;;;;13.30;8.60;;;;;;;16.06;58.98;99711.23;113204;1184;76077;-90
2021/09/06 23:03:53;;;;;;;;;;;;;;;;;;;;;
2021/09/06 23:07:26;;;;;;;16.20;9.80;;;;;;;16.12;58.93;99708.92;113387;1183;71341;-95
2021/09/06 23:10:51;;;;;;;11.50;9.20;;;;;;;16.16;58.97;99705.73;113394;1183;61869;-94
2021/09/06 23:14:09;;;;;;;;;;;;;;;;;;;;;
2021/09/06 23:17:41;;;;;;;;;;;;;;;;;;;;;
2021/09/06 23:20:33;;;;;;;12.70;9.50;;;;;;;16.15;59.09;99712.25;113799;1180;67942;-89
2021/09/06 23:23:27;;;;;;;;;;;;;;;;;;;;;
2021/09/06 23:27:10;;;;;;;11.40;8.80;;;;;;;16.14;59.12;99707.65;113629;1180;61914;-92
2021/09/06 23:29:57;;;;;;;12.70;8.70;;;;;;;16.12;59.16;99705.27;113637;1180;61964;-92
2021/09/06 23:33:38;;;;;;;;;;;;;;;;;;;;;
2021/09/06 23:37:29;;;;;;;15.40;10.30;;;;;;;16.13;59.17;99702.73;113526;1180;67967;-90
2021/09/06 23:40:00;;;;;;;14.70;10.20;;;;;;;16.14;59.35;99700.41;113369;1180;72596;-89
2021/09/06 23:43:42;;;;;;;17.60;10.40;;;;;;;16.14;59.46;99699.52;113490;1180;61959;-89
2021/09/06 23:46:34;;;;;;;14.00;9.80;;;;;;;16.12;59.37;99697.41;113884;1180;61933;-90
2021/09/06 23:50:31;;;;;;;17.50;10.90;;;;;;;16.08;59.45;99698.81;113764;1181;73001;-92
2021/09/06 23:52:57;;;;;;;15.30;10.30;;;;;;;16.03;59.51;99694.92;113647;1184;67663;-91
2021/09/06 23:56:13;;;;;;;14.00;10.60;;;;;;;15.99;59.53;99695.13;113284;1184;71459;-89
